Basel, Switzerland
Current Conditions -  °F | °C
As of 11:30 PM on Friday 28 Nov 2014 (Local Time) from LFSB Reporting Station
Haze Haze  
Wind Chill: 35°   Ceiling: 500
Heat Index: 39°   Visibility: 1.8mi
Dew Point: 39°   Wind: 6mph
Humidity: 100%   Direction: 10°N
Pressure: 29.85"   Gusts: NA
Location:  47.57°N, 7.58°E
Report Text: LFSB 282230Z 01005KT 330V050 3000 BR SCT003 BKN005 BKN01104/04 Q1011 TEMPO 2000 BR BKN003
Loading
Personal Weather Stations






























Interactive Weather Map New forecast layout! Learn more

10-Day Weather Forecast

Advertisements
Track Severe Weather on mobile